createdAt,value
2022-12-24T00:00:46.192Z,15.25
2022-12-24T00:01:47.782Z,16.08
2022-12-24T00:02:49.366Z,16.48
2022-12-24T00:03:51.175Z,15.52
2022-12-24T00:04:58.682Z,15.25
2022-12-24T00:06:07.295Z,16.10
2022-12-24T00:07:08.775Z,16.10
2022-12-24T00:08:10.174Z,15.98
2022-12-24T00:09:11.569Z,15.48
2022-12-24T00:10:13.025Z,16.05
2022-12-24T00:11:14.485Z,15.25
2022-12-24T00:12:15.961Z,15.02
2022-12-24T00:13:17.387Z,14.38
2022-12-24T00:14:18.964Z,15.40
2022-12-24T00:15:20.423Z,15.15
2022-12-24T00:16:21.879Z,15.48
2022-12-24T00:17:23.357Z,15.55
2022-12-24T00:18:24.984Z,15.93
2022-12-24T00:19:26.522Z,16.17
2022-12-24T00:20:28.725Z,15.00
2022-12-24T00:21:30.223Z,15.63
2022-12-24T00:22:31.666Z,15.52
2022-12-24T00:23:33.126Z,14.95
2022-12-24T00:24:34.653Z,14.18
2022-12-24T00:25:36.083Z,14.55
2022-12-24T00:26:37.627Z,14.23
2022-12-24T00:27:39.177Z,14.05
2022-12-24T00:28:41.185Z,14.45
2022-12-24T00:29:42.754Z,12.98
2022-12-24T00:30:44.507Z,13.00
2022-12-24T00:31:46.289Z,13.52
2022-12-24T00:32:47.704Z,13.35
2022-12-24T00:33:49.312Z,14.45
2022-12-24T00:34:50.848Z,12.07
2022-12-24T00:35:53.032Z,13.05
2022-12-24T00:36:54.785Z,13.20
2022-12-24T00:37:56.228Z,12.65
2022-12-24T00:38:57.637Z,12.27
2022-12-24T00:39:59.098Z,11.85
2022-12-24T00:41:04.954Z,11.05
2022-12-24T00:42:06.408Z,11.85
2022-12-24T00:43:08.014Z,10.98
2022-12-24T00:44:10.475Z,10.77
2022-12-24T00:45:12.954Z,11.85
2022-12-24T00:46:14.455Z,12.43
2022-12-24T00:47:15.879Z,11.93
2022-12-24T00:48:17.311Z,12.55
2022-12-24T00:49:18.723Z,11.95
2022-12-24T00:50:20.157Z,11.55
2022-12-24T00:51:23.183Z,12.70
2022-12-24T00:52:24.750Z,12.35
2022-12-24T00:53:26.187Z,13.05
2022-12-24T00:54:27.632Z,12.57
2022-12-24T00:55:29.109Z,10.75
2022-12-24T00:56:30.616Z,12.00
2022-12-24T00:57:32.054Z,11.15
2022-12-24T00:58:33.630Z,9.90
2022-12-24T00:59:35.257Z,10.60
2022-12-24T01:00:36.753Z,11.45
2022-12-24T01:01:38.255Z,10.88
2022-12-24T01:02:40.013Z,12.02
2022-12-24T01:03:41.678Z,10.70
2022-12-24T01:05:01.526Z,10.85
2022-12-24T01:06:03.820Z,9.82
2022-12-24T01:07:05.267Z,10.07
2022-12-24T01:08:06.654Z,9.98
2022-12-24T01:09:08.113Z,10.35
2022-12-24T01:10:10.593Z,8.70
2022-12-24T01:11:13.464Z,6.45
2022-12-24T01:12:15.670Z,8.88
2022-12-24T01:13:17.111Z,8.55
2022-12-24T01:14:18.523Z,9.38
2022-12-24T01:15:20.085Z,9.05
2022-12-24T01:16:21.569Z,10.35
2022-12-24T01:17:23.322Z,9.13
2022-12-24T01:18:25.399Z,10.02
2022-12-24T01:20:31.468Z,8.50
2022-12-24T01:21:32.947Z,9.20
2022-12-24T01:22:34.563Z,9.73
2022-12-24T01:23:36.050Z,10.38
2022-12-24T01:24:37.533Z,9.93
2022-12-24T01:25:39.124Z,11.52
2022-12-24T01:26:40.693Z,10.82
2022-12-24T01:27:44.669Z,9.75
2022-12-24T01:28:46.119Z,10.32
2022-12-24T01:29:47.595Z,10.77
2022-12-24T01:30:49.181Z,10.45
2022-12-24T01:31:50.640Z,10.70
2022-12-24T01:32:52.064Z,10.98
2022-12-24T01:33:53.484Z,11.55
2022-12-24T01:34:55.017Z,10.82
2022-12-24T01:35:56.443Z,10.93
2022-12-24T01:36:57.895Z,10.18
2022-12-24T01:37:59.316Z,10.02
2022-12-24T01:39:00.746Z,10.65
2022-12-24T01:40:20.912Z,11.43
2022-12-24T01:43:07.013Z,9.93
2022-12-24T01:44:20.363Z,10.45
2022-12-24T01:45:41.157Z,11.10
2022-12-24T01:46:43.076Z,10.80
2022-12-24T01:47:44.568Z,10.70
2022-12-24T01:48:51.891Z,12.00
2022-12-24T01:50:01.735Z,12.00
2022-12-24T01:51:39.256Z,10.98
2022-12-24T01:52:41.053Z,11.13
2022-12-24T01:53:45.251Z,12.00
2022-12-24T01:54:52.288Z,11.70
2022-12-24T01:55:55.173Z,12.30
2022-12-24T01:57:04.954Z,12.05
2022-12-24T01:58:08.278Z,11.75
2022-12-24T01:59:13.138Z,10.45
2022-12-24T02:00:21.563Z,11.38
2022-12-24T02:01:24.280Z,12.32
2022-12-24T02:02:27.660Z,11.93
2022-12-24T02:03:29.408Z,11.63
2022-12-24T02:04:58.471Z,11.85
2022-12-24T02:06:00.834Z,11.35
2022-12-24T02:07:02.791Z,11.27
2022-12-24T02:08:05.406Z,11.73
2022-12-24T02:09:07.206Z,11.60
2022-12-24T02:10:11.350Z,12.10
2022-12-24T02:11:17.302Z,11.38
2022-12-24T02:12:19.023Z,11.57
2022-12-24T02:13:21.425Z,12.23
2022-12-24T02:14:23.275Z,12.65
2022-12-24T02:15:25.012Z,11.10
2022-12-24T02:17:00.507Z,11.30
2022-12-24T02:18:28.574Z,11.88
2022-12-24T02:19:38.834Z,11.45
2022-12-24T02:20:50.331Z,12.98
2022-12-24T02:22:13.813Z,12.43
2022-12-24T02:23:28.362Z,12.38
2022-12-24T02:24:54.708Z,12.00
2022-12-24T02:26:17.446Z,13.32
2022-12-24T02:27:52.479Z,12.38
2022-12-24T02:29:05.528Z,11.77
2022-12-24T02:30:27.085Z,12.70
2022-12-24T02:32:01.788Z,13.00
2022-12-24T02:33:15.765Z,13.20
2022-12-24T02:34:20.634Z,13.15
2022-12-24T02:35:31.880Z,13.82
2022-12-24T02:36:44.202Z,13.10
2022-12-24T02:37:55.245Z,13.20
2022-12-24T02:38:59.680Z,13.68
2022-12-24T02:40:16.093Z,13.95
2022-12-24T02:41:25.185Z,14.15
2022-12-24T02:42:35.472Z,13.32
2022-12-24T02:43:41.498Z,14.20
2022-12-24T02:44:42.862Z,13.68
2022-12-24T02:45:50.361Z,12.80
2022-12-24T02:46:57.701Z,14.65
2022-12-24T02:48:00.195Z,15.05
2022-12-24T02:49:02.348Z,14.82
2022-12-24T02:50:04.537Z,15.43
2022-12-24T02:51:08.397Z,15.10
2022-12-24T02:52:37.937Z,15.48
2022-12-24T02:53:40.386Z,15.35
2022-12-24T02:54:42.147Z,14.95
2022-12-24T02:56:15.979Z,14.55
2022-12-24T02:57:54.734Z,13.55
2022-12-24T02:59:14.336Z,14.57
2022-12-24T03:00:21.781Z,14.43
2022-12-24T03:01:51.418Z,14.73
2022-12-24T03:03:11.935Z,15.30
2022-12-24T03:04:19.343Z,15.52
2022-12-24T03:05:34.867Z,15.18
2022-12-24T03:06:57.707Z,15.57
2022-12-24T03:08:07.513Z,15.93
2022-12-24T03:09:20.817Z,16.42
2022-12-24T03:10:31.054Z,16.50
2022-12-24T03:11:35.936Z,15.80
2022-12-24T03:12:49.013Z,16.05
2022-12-24T03:13:55.499Z,16.48
2022-12-24T03:14:57.635Z,16.40
2022-12-24T03:17:03.523Z,15.73
2022-12-24T03:18:08.451Z,15.93
2022-12-24T03:19:11.451Z,16.63
2022-12-24T03:20:18.670Z,17.33
2022-12-24T03:21:20.031Z,16.40
2022-12-24T03:22:22.912Z,16.42
2022-12-24T03:23:24.855Z,15.98
2022-12-24T03:24:26.757Z,15.73
2022-12-24T03:25:34.417Z,16.63
2022-12-24T03:26:36.762Z,16.02
2022-12-24T03:27:39.522Z,16.83
2022-12-24T03:28:42.335Z,16.58
2022-12-24T03:29:45.814Z,17.58
2022-12-24T03:30:48.802Z,16.73
2022-12-24T03:31:53.379Z,15.98
2022-12-24T03:32:55.275Z,14.30
2022-12-24T03:33:56.882Z,15.27
2022-12-24T03:34:58.610Z,17.20
2022-12-24T03:36:00.273Z,17.15
2022-12-24T03:37:01.751Z,17.90
2022-12-24T03:38:03.325Z,17.40
2022-12-24T03:39:05.649Z,15.90
2022-12-24T03:40:07.826Z,17.30
2022-12-24T03:41:09.754Z,16.40
2022-12-24T03:42:13.703Z,15.80
2022-12-24T03:43:15.226Z,16.02
2022-12-24T03:44:16.700Z,16.42
2022-12-24T03:45:18.876Z,16.60
2022-12-24T03:46:20.421Z,16.02
2022-12-24T03:47:21.897Z,16.20
2022-12-24T03:48:27.472Z,15.45
2022-12-24T03:49:33.956Z,15.07
2022-12-24T03:50:35.406Z,15.73
2022-12-24T03:51:36.853Z,15.63
2022-12-24T03:52:38.339Z,15.20
2022-12-24T03:53:39.836Z,15.50
2022-12-24T03:54:41.282Z,16.67
2022-12-24T03:55:42.773Z,15.43
2022-12-24T03:56:46.804Z,14.95
2022-12-24T03:57:48.518Z,16.55
2022-12-24T03:58:50.200Z,16.13
2022-12-24T03:59:51.763Z,15.82
2022-12-24T04:00:54.066Z,16.63
2022-12-24T04:01:55.724Z,16.00
2022-12-24T04:02:57.438Z,15.82
2022-12-24T04:03:58.923Z,17.08
2022-12-24T04:05:00.340Z,16.17
2022-12-24T04:06:01.681Z,16.83
2022-12-24T04:07:04.235Z,16.88
2022-12-24T04:08:05.737Z,16.48
2022-12-24T04:09:07.120Z,16.35
2022-12-24T04:10:09.054Z,17.73
2022-12-24T04:11:12.851Z,16.98
2022-12-24T04:12:15.696Z,17.40
2022-12-24T04:13:17.130Z,17.17
2022-12-24T04:14:18.531Z,18.35
2022-12-24T04:15:20.000Z,18.92
2022-12-24T04:16:21.512Z,18.30
2022-12-24T04:17:26.901Z,18.95
2022-12-24T04:18:28.907Z,17.63
2022-12-24T04:19:30.347Z,17.23
2022-12-24T04:20:31.780Z,19.17
2022-12-24T04:21:33.190Z,16.85
2022-12-24T04:22:34.614Z,17.13
2022-12-24T04:23:39.041Z,17.63
2022-12-24T04:24:40.480Z,17.42
2022-12-24T04:25:41.905Z,18.00
2022-12-24T04:26:43.301Z,18.05
2022-12-24T04:27:44.743Z,17.02
2022-12-24T04:28:46.223Z,17.08
2022-12-24T04:29:48.193Z,17.58
2022-12-24T04:30:49.673Z,18.27
2022-12-24T04:31:51.170Z,17.30
2022-12-24T04:32:52.607Z,18.00
2022-12-24T04:33:54.011Z,18.00
2022-12-24T04:34:55.482Z,18.45
2022-12-24T04:36:02.272Z,18.25
2022-12-24T04:37:04.457Z,17.40
2022-12-24T04:38:05.883Z,18.75
2022-12-24T04:39:07.427Z,18.50
2022-12-24T04:40:09.296Z,18.33
2022-12-24T04:41:23.861Z,18.25
2022-12-24T04:42:26.119Z,17.10
2022-12-24T04:43:28.793Z,17.92
2022-12-24T04:44:30.241Z,18.65
2022-12-24T04:45:31.783Z,19.40
2022-12-24T04:46:33.744Z,18.95
2022-12-24T04:47:35.172Z,17.40
2022-12-24T04:48:37.710Z,18.55
2022-12-24T04:49:39.127Z,17.45
2022-12-24T04:50:40.515Z,17.95
2022-12-24T04:51:42.018Z,17.80
2022-12-24T04:52:43.558Z,19.02
2022-12-24T04:53:45.316Z,18.33
2022-12-24T04:54:46.711Z,17.42
2022-12-24T04:55:51.336Z,17.25
2022-12-24T04:56:52.808Z,18.30
2022-12-24T04:57:54.257Z,16.27
2022-12-24T04:58:56.344Z,19.15
2022-12-24T05:01:04.964Z,16.67
2022-12-24T05:02:06.730Z,16.77
2022-12-24T05:03:11.112Z,19.25
2022-12-24T05:04:12.550Z,18.70
2022-12-24T05:05:14.088Z,18.38
2022-12-24T05:06:18.822Z,16.83
2022-12-24T05:07:20.291Z,18.23
2022-12-24T05:08:21.715Z,17.98
2022-12-24T05:09:23.141Z,16.92
2022-12-24T05:10:24.832Z,17.73
2022-12-24T05:11:26.543Z,18.40
2022-12-24T05:12:28.065Z,17.38
2022-12-24T05:13:40.397Z,17.30
2022-12-24T05:14:43.838Z,16.92
2022-12-24T05:15:45.283Z,16.85
2022-12-24T05:16:46.753Z,18.58
2022-12-24T05:17:48.217Z,18.00
2022-12-24T05:18:50.412Z,19.90
2022-12-24T05:19:51.867Z,19.30
2022-12-24T05:20:53.647Z,19.48
2022-12-24T05:22:16.492Z,18.30
2022-12-24T05:23:42.941Z,18.42
2022-12-24T05:25:02.863Z,16.42
2022-12-24T05:26:22.403Z,16.70
2022-12-24T05:27:24.264Z,17.80
2022-12-24T05:28:25.766Z,18.90
2022-12-24T05:29:27.271Z,18.63
2022-12-24T05:30:28.761Z,19.00
2022-12-24T05:31:33.251Z,18.52
2022-12-24T05:32:34.765Z,17.42
2022-12-24T05:33:36.214Z,18.17
2022-12-24T05:34:37.744Z,18.27
2022-12-24T05:35:39.206Z,18.67
2022-12-24T05:36:40.773Z,18.67
2022-12-24T05:37:42.266Z,19.65
2022-12-24T05:38:43.883Z,19.00
2022-12-24T05:39:45.285Z,18.95
2022-12-24T05:40:47.072Z,18.63
2022-12-24T05:41:48.495Z,17.80
2022-12-24T05:42:50.647Z,20.27
2022-12-24T05:43:52.145Z,19.80
2022-12-24T05:44:53.623Z,19.63
2022-12-24T05:46:03.223Z,19.95
2022-12-24T05:47:04.764Z,20.42
2022-12-24T05:48:08.052Z,19.40
2022-12-24T05:49:09.572Z,19.15
2022-12-24T05:50:12.769Z,18.42
2022-12-24T05:51:16.054Z,18.50
2022-12-24T05:52:17.492Z,18.25
2022-12-24T05:53:18.945Z,19.80
2022-12-24T05:54:20.391Z,19.80
2022-12-24T05:55:21.821Z,18.67
2022-12-24T05:56:24.991Z,18.65
2022-12-24T05:57:26.452Z,18.40
2022-12-24T05:58:27.857Z,18.98
2022-12-24T05:59:29.326Z,19.13
2022-12-24T06:00:30.809Z,18.75
2022-12-24T06:01:32.411Z,18.77
2022-12-24T06:02:33.887Z,18.30
2022-12-24T06:03:38.695Z,18.05
2022-12-24T06:04:40.268Z,19.35
2022-12-24T06:05:44.439Z,18.67
2022-12-24T06:06:45.966Z,18.35
2022-12-24T06:07:47.490Z,18.38
2022-12-24T06:08:49.989Z,18.48
2022-12-24T06:09:51.401Z,18.13
2022-12-24T06:10:57.780Z,17.90
2022-12-24T06:11:59.308Z,17.42
2022-12-24T06:13:00.706Z,18.85
2022-12-24T06:14:02.105Z,18.75
2022-12-24T06:15:03.759Z,18.40
2022-12-24T06:16:06.888Z,19.35
2022-12-24T06:17:08.315Z,18.73
2022-12-24T06:18:09.718Z,19.00
2022-12-24T06:19:11.163Z,18.73
2022-12-24T06:20:12.631Z,17.73
2022-12-24T06:21:14.949Z,18.85
2022-12-24T06:22:16.377Z,18.95
2022-12-24T06:23:17.932Z,18.95
2022-12-24T06:24:19.354Z,20.00
2022-12-24T06:25:20.752Z,19.65
2022-12-24T06:26:23.360Z,18.98
2022-12-24T06:27:24.798Z,18.65
2022-12-24T06:28:36.963Z,18.95
2022-12-24T06:29:38.401Z,20.13
2022-12-24T06:30:40.303Z,18.95
2022-12-24T06:31:41.757Z,19.17
2022-12-24T06:32:43.235Z,19.67
2022-12-24T06:33:44.748Z,18.65
2022-12-24T06:34:46.171Z,17.95
2022-12-24T06:35:47.700Z,18.65
2022-12-24T06:36:49.575Z,18.40
2022-12-24T06:37:51.069Z,18.98
2022-12-24T06:38:54.043Z,19.30
2022-12-24T06:39:55.662Z,19.15
2022-12-24T06:40:57.219Z,19.48
2022-12-24T06:41:58.745Z,20.23
2022-12-24T06:43:00.222Z,17.75
2022-12-24T06:44:01.704Z,18.52
2022-12-24T06:45:10.704Z,19.00
2022-12-24T06:46:12.450Z,18.83
2022-12-24T06:47:13.897Z,20.48
2022-12-24T06:48:16.032Z,20.50
2022-12-24T06:49:17.496Z,19.40
2022-12-24T06:50:18.952Z,19.48
2022-12-24T06:51:21.046Z,20.65
2022-12-24T06:53:23.770Z,18.65
2022-12-24T06:54:25.651Z,19.65
2022-12-24T06:55:27.534Z,20.95
2022-12-24T06:56:29.005Z,21.77
2022-12-24T06:57:31.820Z,20.73
2022-12-24T06:58:34.164Z,21.05
2022-12-24T06:59:35.632Z,20.58
2022-12-24T07:00:37.345Z,21.60
2022-12-24T07:01:38.824Z,20.67
2022-12-24T07:02:41.748Z,22.52
2022-12-24T07:03:43.422Z,19.52
2022-12-24T07:04:44.904Z,18.00
2022-12-24T07:05:46.326Z,21.35
2022-12-24T07:06:47.797Z,21.70
2022-12-24T07:07:49.213Z,20.23
2022-12-24T07:08:50.692Z,19.45
2022-12-24T07:09:52.115Z,19.67
2022-12-24T07:10:54.429Z,19.48
2022-12-24T07:11:58.995Z,20.30
2022-12-24T07:13:00.458Z,18.23
2022-12-24T07:14:01.872Z,19.10
2022-12-24T07:15:03.569Z,18.75
2022-12-24T07:16:05.607Z,19.02
2022-12-24T07:18:08.993Z,16.27
2022-12-24T07:19:10.505Z,17.45
2022-12-24T07:20:14.622Z,18.98
2022-12-24T07:21:16.150Z,18.45
2022-12-24T07:22:17.576Z,19.33
2022-12-24T07:23:19.125Z,19.45
2022-12-24T07:24:21.513Z,19.70
2022-12-24T07:25:23.073Z,20.60
2022-12-24T07:26:24.532Z,20.27
2022-12-24T07:27:25.964Z,20.38
2022-12-24T07:28:28.276Z,29.75
2022-12-24T07:29:32.860Z,32.72
2022-12-24T07:30:34.379Z,24.83
2022-12-24T07:31:35.915Z,20.52
2022-12-24T07:32:37.419Z,20.42
2022-12-24T07:33:38.863Z,19.73
2022-12-24T07:34:40.267Z,19.08
2022-12-24T07:35:41.793Z,20.92
2022-12-24T07:36:43.195Z,20.85
2022-12-24T07:37:44.586Z,20.40
2022-12-24T07:38:45.999Z,20.40
2022-12-24T07:39:47.382Z,19.98
2022-12-24T07:40:48.775Z,21.08
2022-12-24T07:41:50.463Z,21.63
2022-12-24T07:42:51.901Z,21.08
2022-12-24T07:43:53.395Z,21.25
2022-12-24T07:44:56.877Z,22.33
2022-12-24T07:45:58.593Z,22.02
2022-12-24T07:47:00.155Z,21.02
2022-12-24T07:48:01.661Z,22.38
2022-12-24T07:49:03.050Z,21.50
2022-12-24T07:50:05.939Z,22.77
2022-12-24T07:51:07.480Z,22.15
2022-12-24T07:52:08.982Z,27.75
2022-12-24T07:53:10.512Z,29.83
2022-12-24T07:54:11.928Z,25.70
2022-12-24T07:55:13.404Z,24.00
2022-12-24T07:56:15.454Z,23.38
2022-12-24T07:58:18.571Z,19.58
2022-12-24T07:59:20.314Z,20.23
2022-12-24T08:00:21.839Z,20.38
2022-12-24T08:01:23.344Z,18.50
2022-12-24T08:02:24.900Z,21.10
2022-12-24T08:03:27.387Z,20.70
2022-12-24T08:04:32.334Z,21.13
2022-12-24T08:05:38.935Z,20.45
2022-12-24T08:06:40.410Z,20.55
2022-12-24T08:07:41.819Z,20.42
2022-12-24T08:08:43.364Z,20.42
2022-12-24T08:09:46.376Z,19.88
2022-12-24T08:10:47.996Z,20.27
2022-12-24T08:11:52.412Z,20.08
2022-12-24T08:12:54.119Z,20.77
2022-12-24T08:13:55.572Z,20.63
2022-12-24T08:14:56.991Z,19.63
2022-12-24T08:15:58.753Z,20.00
2022-12-24T08:17:00.180Z,19.83
2022-12-24T08:18:01.605Z,18.83
2022-12-24T08:19:03.132Z,21.00
2022-12-24T08:20:08.557Z,19.65
2022-12-24T08:21:10.119Z,18.52
2022-12-24T08:22:11.609Z,19.73
2022-12-24T08:23:13.236Z,20.23
2022-12-24T08:24:14.677Z,19.23
2022-12-24T08:25:16.285Z,20.63
2022-12-24T08:26:17.744Z,21.67
2022-12-24T08:27:19.183Z,24.52
2022-12-24T08:28:21.200Z,24.65
2022-12-24T08:29:22.726Z,23.25
2022-12-24T08:30:24.152Z,22.10
2022-12-24T08:31:25.628Z,21.95
2022-12-24T08:32:27.107Z,23.27
2022-12-24T08:33:28.646Z,21.85
2022-12-24T08:34:30.099Z,23.75
2022-12-24T08:35:31.705Z,24.73
2022-12-24T08:36:34.322Z,26.67
2022-12-24T08:37:35.767Z,24.38
2022-12-24T08:38:37.298Z,21.38
2022-12-24T08:39:38.725Z,20.17
2022-12-24T08:40:40.131Z,21.55
2022-12-24T08:41:41.606Z,20.60
2022-12-24T08:42:43.112Z,19.52
2022-12-24T08:43:44.567Z,18.35
2022-12-24T08:44:45.945Z,18.75
2022-12-24T08:45:49.347Z,19.27
2022-12-24T08:46:53.324Z,18.42
2022-12-24T08:47:54.730Z,18.48
2022-12-24T08:48:56.125Z,18.27
2022-12-24T08:49:57.528Z,19.17
2022-12-24T08:50:59.006Z,20.08
2022-12-24T08:52:00.452Z,19.52
2022-12-24T08:53:01.929Z,20.00
2022-12-24T08:54:03.593Z,19.23
2022-12-24T08:55:05.767Z,18.55
2022-12-24T08:56:10.257Z,20.10
2022-12-24T08:57:11.774Z,19.45
2022-12-24T08:58:13.252Z,20.52
2022-12-24T08:59:14.681Z,20.20
2022-12-24T09:00:16.503Z,19.52
2022-12-24T09:01:20.312Z,19.90
2022-12-24T09:02:22.284Z,20.38
2022-12-24T09:03:27.929Z,19.90
2022-12-24T09:04:29.712Z,18.83
2022-12-24T09:05:31.863Z,19.95
2022-12-24T09:06:33.524Z,19.65
2022-12-24T09:07:35.012Z,19.17
2022-12-24T09:08:36.618Z,20.90
2022-12-24T09:09:38.441Z,21.00
2022-12-24T09:10:40.031Z,20.15
2022-12-24T09:11:41.469Z,21.98
2022-12-24T09:12:42.925Z,21.42
2022-12-24T09:13:44.742Z,21.70
2022-12-24T09:14:46.191Z,21.30
2022-12-24T09:15:55.571Z,20.50
2022-12-24T09:16:57.397Z,18.80
2022-12-24T09:17:58.975Z,19.30
2022-12-24T09:19:00.382Z,20.52
2022-12-24T09:20:02.216Z,19.10
2022-12-24T09:21:07.094Z,20.52
2022-12-24T09:22:08.684Z,19.98
2022-12-24T09:23:10.085Z,20.80
2022-12-24T09:24:11.583Z,20.98
2022-12-24T09:25:13.104Z,21.75
2022-12-24T09:26:20.416Z,22.10
2022-12-24T09:27:21.799Z,20.27
2022-12-24T09:28:23.696Z,21.48
2022-12-24T09:29:25.438Z,22.52
2022-12-24T09:30:26.982Z,20.88
2022-12-24T09:31:29.497Z,22.00
2022-12-24T09:32:30.910Z,21.67
2022-12-24T09:33:35.035Z,20.50
2022-12-24T09:34:37.188Z,21.25
2022-12-24T09:36:40.099Z,18.50
2022-12-24T09:37:41.519Z,19.63
2022-12-24T09:38:43.305Z,22.98
2022-12-24T09:39:44.781Z,25.00
2022-12-24T09:40:47.013Z,21.05
2022-12-24T09:42:13.318Z,19.55
2022-12-24T09:43:21.990Z,30.75
2022-12-24T09:44:39.627Z,19.25
2022-12-24T09:45:48.350Z,37.53
2022-12-24T09:46:51.874Z,27.80
2022-12-24T09:47:57.921Z,25.27
2022-12-24T09:49:05.956Z,19.05
2022-12-24T09:51:40.769Z,14.73
2022-12-24T09:52:45.430Z,17.48
2022-12-24T09:54:15.820Z,16.50
2022-12-24T09:55:42.283Z,16.48
2022-12-24T09:56:46.124Z,15.57
2022-12-24T09:57:50.603Z,15.93
2022-12-24T09:58:59.818Z,16.27
2022-12-24T10:00:02.156Z,15.98
2022-12-24T10:01:03.995Z,16.15
2022-12-24T10:02:19.983Z,15.25
2022-12-24T10:03:21.616Z,14.38
2022-12-24T10:04:29.501Z,14.52
2022-12-24T10:05:56.942Z,15.75
2022-12-24T10:07:29.460Z,17.13
2022-12-24T10:08:39.897Z,27.52
2022-12-24T10:10:03.136Z,29.67
2022-12-24T10:11:36.756Z,17.00
2022-12-24T10:12:49.712Z,21.00
2022-12-24T10:14:09.566Z,22.08
2022-12-24T10:15:30.749Z,19.60
2022-12-24T10:16:50.942Z,16.98
2022-12-24T10:17:58.629Z,16.45
2022-12-24T10:19:12.279Z,16.88
2022-12-24T10:20:32.682Z,17.17
2022-12-24T10:22:07.083Z,25.52
2022-12-24T10:23:19.504Z,51.78
2022-12-24T10:24:34.564Z,49.05
2022-12-24T10:25:45.887Z,25.75
2022-12-24T10:27:02.890Z,18.65
2022-12-24T10:28:14.739Z,17.00
2022-12-24T10:29:39.047Z,41.58
2022-12-24T10:30:41.721Z,30.02
2022-12-24T10:31:53.517Z,23.98
2022-12-24T10:32:55.503Z,23.98
2022-12-24T10:34:03.035Z,22.90
2022-12-24T10:35:16.780Z,20.08
2022-12-24T10:36:23.524Z,13.50
2022-12-24T10:37:28.532Z,16.35
2022-12-24T10:38:31.599Z,15.65
2022-12-24T10:39:33.282Z,15.50
2022-12-24T10:40:37.892Z,12.30
2022-12-24T10:41:39.672Z,11.20
2022-12-24T10:42:51.024Z,14.98
2022-12-24T10:43:55.074Z,14.02
2022-12-24T10:45:02.946Z,11.07
2022-12-24T10:46:14.067Z,12.55
2022-12-24T10:47:18.233Z,11.48
2022-12-24T10:48:25.756Z,15.07
2022-12-24T10:49:36.635Z,14.30
2022-12-24T10:50:43.135Z,7.85
2022-12-24T10:51:56.026Z,8.80
2022-12-24T10:53:07.605Z,8.63
2022-12-24T10:54:18.263Z,7.45
2022-12-24T10:55:24.419Z,7.03
2022-12-24T10:56:25.866Z,8.00
2022-12-24T10:57:27.368Z,9.07
2022-12-24T10:58:29.003Z,6.93
2022-12-24T10:59:39.304Z,8.93
2022-12-24T11:00:41.416Z,8.10
2022-12-24T11:01:47.475Z,7.45
2022-12-24T11:02:50.105Z,6.90
2022-12-24T11:04:02.125Z,6.47
2022-12-24T11:05:08.164Z,6.82
2022-12-24T11:06:21.253Z,6.88
2022-12-24T11:07:23.981Z,4.90
2022-12-24T11:08:26.160Z,5.88
2022-12-24T11:09:41.165Z,5.43
2022-12-24T11:10:53.835Z,5.63
2022-12-24T11:12:00.370Z,6.18
2022-12-24T11:13:36.150Z,6.10
2022-12-24T11:14:31.259Z,5.22
2022-12-24T11:15:34.652Z,7.68
2022-12-24T11:16:36.795Z,5.22
2022-12-24T11:18:51.371Z,5.55
2022-12-24T11:19:53.665Z,4.65
2022-12-24T11:20:55.323Z,4.78
2022-12-24T11:22:08.898Z,4.88
2022-12-24T11:23:17.111Z,4.45
2022-12-24T11:24:29.087Z,17.15
2022-12-24T11:25:32.633Z,8.65
2022-12-24T11:26:34.276Z,34.42
2022-12-24T11:27:50.533Z,13.45
2022-12-24T11:29:14.629Z,10.05
2022-12-24T11:30:15.993Z,9.57
2022-12-24T11:31:21.206Z,4.18
2022-12-24T11:32:23.243Z,10.15
2022-12-24T11:33:24.723Z,8.52
2022-12-24T11:34:32.956Z,5.88
2022-12-24T11:35:41.472Z,4.68
2022-12-24T11:36:42.903Z,12.18
2022-12-24T11:37:44.640Z,6.78
2022-12-24T11:38:54.659Z,6.65
2022-12-24T11:40:01.447Z,7.53
2022-12-24T11:41:09.847Z,8.48
2022-12-24T11:42:26.449Z,6.90
2022-12-24T11:43:44.479Z,10.40
2022-12-24T11:44:50.588Z,6.20
2022-12-24T11:45:54.864Z,6.65
2022-12-24T11:46:57.096Z,7.10
2022-12-24T11:47:59.190Z,10.55
2022-12-24T11:49:26.643Z,12.10
2022-12-24T11:50:29.706Z,7.07
2022-12-24T11:51:31.231Z,20.85
2022-12-24T11:52:42.461Z,10.85
2022-12-24T11:53:52.355Z,8.10
2022-12-24T11:55:20.084Z,10.02
2022-12-24T11:56:51.866Z,6.78
2022-12-24T11:58:02.242Z,6.72
2022-12-24T11:59:15.442Z,9.23
2022-12-24T12:00:17.254Z,8.82
2022-12-24T12:01:39.939Z,8.50
2022-12-24T12:02:43.515Z,10.10
2022-12-24T12:03:51.911Z,8.48
2022-12-24T12:05:19.084Z,6.95
2022-12-24T12:06:38.297Z,7.25
2022-12-24T12:07:39.999Z,7.95
2022-12-24T12:08:42.963Z,7.82
2022-12-24T12:09:50.633Z,7.82
2022-12-24T12:10:53.771Z,7.75
2022-12-24T12:12:02.809Z,7.85
2022-12-24T12:13:15.551Z,7.50
2022-12-24T12:14:34.562Z,6.90
2022-12-24T12:15:42.387Z,10.40
2022-12-24T12:17:16.792Z,21.58
2022-12-24T12:18:39.900Z,12.35
2022-12-24T12:19:46.549Z,32.55
2022-12-24T12:20:52.879Z,24.85
2022-12-24T12:21:54.519Z,15.25
2022-12-24T12:23:05.606Z,9.23
2022-12-24T12:24:16.785Z,12.57
2022-12-24T12:25:23.348Z,26.88
2022-12-24T12:26:28.204Z,15.45
2022-12-24T12:27:45.968Z,14.50
2022-12-24T12:28:55.024Z,13.18
2022-12-24T12:30:02.035Z,8.23
2022-12-24T12:31:16.358Z,12.43
2022-12-24T12:32:43.369Z,9.75
2022-12-24T12:34:00.081Z,7.47
2022-12-24T12:35:21.626Z,8.43
2022-12-24T12:36:30.503Z,8.30
2022-12-24T12:37:40.629Z,8.50
2022-12-24T12:38:42.205Z,8.98
2022-12-24T12:39:43.802Z,8.68
2022-12-24T12:41:00.510Z,12.68
2022-12-24T12:42:35.459Z,8.93
2022-12-24T12:44:02.402Z,7.35
2022-12-24T12:45:16.651Z,11.23
2022-12-24T12:46:39.245Z,9.02
2022-12-24T12:48:01.724Z,12.13
2022-12-24T12:49:05.874Z,11.15
2022-12-24T12:50:16.404Z,8.43
2022-12-24T12:51:28.071Z,10.13
2022-12-24T12:52:48.134Z,10.85
2022-12-24T12:55:06.077Z,7.15
2022-12-24T12:56:13.427Z,6.70
2022-12-24T12:57:19.808Z,7.75
2022-12-24T12:58:53.674Z,7.25
2022-12-24T13:00:01.287Z,6.28
2022-12-24T13:01:19.213Z,7.75
2022-12-24T13:02:39.719Z,7.03
2022-12-24T13:04:06.322Z,6.97
2022-12-24T13:05:45.278Z,6.22
2022-12-24T13:07:08.831Z,7.20
2022-12-24T13:08:22.378Z,7.15
2022-12-24T13:09:38.747Z,6.47
2022-12-24T13:10:58.612Z,6.32
2022-12-24T13:12:38.463Z,6.85
2022-12-24T13:14:05.579Z,6.30
2022-12-24T13:15:06.958Z,6.88
2022-12-24T13:16:39.023Z,7.00
2022-12-24T13:18:03.503Z,7.03
2022-12-24T13:19:17.211Z,7.60
2022-12-24T13:20:31.404Z,6.55
2022-12-24T13:21:33.655Z,7.13
2022-12-24T13:22:35.245Z,6.47
2022-12-24T13:23:36.836Z,7.03
2022-12-24T13:24:38.400Z,6.43
2022-12-24T13:25:56.622Z,6.85
2022-12-24T13:27:26.399Z,7.32
2022-12-24T13:28:28.516Z,6.72
2022-12-24T13:29:40.242Z,7.38
2022-12-24T13:30:42.070Z,7.03
2022-12-24T13:31:43.654Z,7.30
2022-12-24T13:32:51.349Z,7.70
2022-12-24T13:33:55.334Z,6.85
2022-12-24T13:35:01.693Z,6.97
2022-12-24T13:36:07.184Z,6.40
2022-12-24T13:37:29.295Z,6.75
2022-12-24T13:38:50.496Z,7.25
2022-12-24T13:40:27.377Z,6.70
2022-12-24T13:41:38.298Z,7.15
2022-12-24T13:42:58.638Z,7.50
2022-12-24T13:44:15.417Z,6.85
2022-12-24T13:45:29.078Z,8.70
2022-12-24T13:47:25.334Z,7.85
2022-12-24T13:48:34.330Z,7.53
2022-12-24T13:49:42.823Z,7.35
2022-12-24T13:50:50.993Z,7.72
2022-12-24T13:52:06.132Z,7.28
2022-12-24T13:53:25.236Z,8.52
2022-12-24T13:54:28.545Z,8.25
2022-12-24T13:55:30.932Z,7.68
2022-12-24T13:56:36.383Z,8.20
2022-12-24T13:57:57.211Z,8.05
2022-12-24T13:59:17.517Z,7.32
2022-12-24T14:00:26.988Z,9.40
2022-12-24T14:01:38.708Z,7.47
2022-12-24T14:02:51.995Z,7.90
2022-12-24T14:03:59.692Z,7.40
2022-12-24T14:05:08.525Z,7.80
2022-12-24T14:06:20.747Z,7.20
2022-12-24T14:07:22.526Z,7.43
2022-12-24T14:08:23.863Z,8.73
2022-12-24T14:09:26.350Z,9.50
2022-12-24T14:10:38.109Z,8.80
2022-12-24T14:12:01.143Z,8.93
2022-12-24T14:13:02.670Z,8.50
2022-12-24T14:14:04.000Z,9.32
2022-12-24T14:15:42.947Z,10.95
2022-12-24T14:16:52.238Z,9.18
2022-12-24T14:17:53.844Z,9.00
2022-12-24T14:19:21.459Z,10.93
2022-12-24T14:20:23.081Z,10.68
2022-12-24T14:21:37.310Z,9.30
2022-12-24T14:22:45.011Z,10.25
2022-12-24T14:23:55.096Z,8.70
2022-12-24T14:25:02.649Z,8.73
2022-12-24T14:26:10.796Z,9.20
2022-12-24T14:27:28.397Z,10.23
2022-12-24T14:28:46.348Z,9.77
2022-12-24T14:29:52.715Z,10.13
2022-12-24T14:31:02.115Z,10.88